createdAt,value
2023-01-07T00:02:21.522Z,13.38
2023-01-07T00:07:26.872Z,13.44
2023-01-07T00:12:31.185Z,13.30
2023-01-07T00:17:34.831Z,13.33
2023-01-07T00:22:40.562Z,13.36
2023-01-07T00:27:44.184Z,13.32
2023-01-07T00:32:47.833Z,13.08
2023-01-07T00:37:53.769Z,13.19
2023-01-07T00:42:57.381Z,13.15
2023-01-07T00:48:01.788Z,13.01
2023-01-07T00:53:07.693Z,12.86
2023-01-07T00:58:15.115Z,12.89
2023-01-07T01:03:18.802Z,13.03
2023-01-07T01:08:25.055Z,13.02
2023-01-07T01:13:28.692Z,12.93
2023-01-07T01:18:32.301Z,12.96
2023-01-07T01:23:37.717Z,12.69
2023-01-07T01:28:41.366Z,12.63
2023-01-07T01:33:45.024Z,12.60
2023-01-07T01:38:50.333Z,12.53
2023-01-07T01:43:54.008Z,12.59
2023-01-07T01:49:00.533Z,12.69
2023-01-07T01:54:09.256Z,12.53
2023-01-07T01:59:18.467Z,12.39
2023-01-07T02:04:23.967Z,12.37
2023-01-07T02:09:29.233Z,12.95
2023-01-07T02:14:47.119Z,12.88
2023-01-07T02:20:20.755Z,13.05
2023-01-07T02:26:02.281Z,13.31
2023-01-07T02:31:26.034Z,13.27
2023-01-07T02:36:47.082Z,13.03
2023-01-07T02:41:58.375Z,12.57
2023-01-07T02:47:07.813Z,12.54
2023-01-07T02:52:22.187Z,12.35
2023-01-07T02:57:50.159Z,12.43
2023-01-07T03:03:19.851Z,12.56
2023-01-07T03:08:38.842Z,12.37
2023-01-07T03:13:47.226Z,12.21
2023-01-07T03:18:56.617Z,12.09
2023-01-07T03:24:02.861Z,12.02
2023-01-07T03:29:09.100Z,12.13
2023-01-07T03:34:17.366Z,11.99
2023-01-07T03:39:25.469Z,11.97
2023-01-07T03:44:29.297Z,11.92
2023-01-07T03:49:34.867Z,11.93
2023-01-07T03:54:40.173Z,11.77
2023-01-07T03:59:43.856Z,11.84
2023-01-07T04:04:48.276Z,12.04
2023-01-07T04:09:53.629Z,12.17
2023-01-07T04:14:59.171Z,12.20
2023-01-07T04:20:02.984Z,12.29
2023-01-07T04:25:09.765Z,12.07
2023-01-07T04:30:13.883Z,12.01
2023-01-07T04:35:17.646Z,11.87
2023-01-07T04:40:22.915Z,11.74
2023-01-07T04:45:26.573Z,11.66
2023-01-07T04:50:30.232Z,11.61
2023-01-07T04:55:35.551Z,11.61
2023-01-07T05:00:39.217Z,11.72
2023-01-07T05:05:42.826Z,11.70
2023-01-07T05:10:50.076Z,11.65
2023-01-07T05:15:53.727Z,11.78
2023-01-07T05:20:57.400Z,11.76
2023-01-07T05:26:02.704Z,11.75
2023-01-07T05:31:06.605Z,11.80
2023-01-07T05:36:10.403Z,11.79
2023-01-07T05:41:15.697Z,11.95
2023-01-07T05:46:19.689Z,12.16
2023-01-07T05:51:23.326Z,12.26
2023-01-07T05:56:28.621Z,12.07
2023-01-07T06:01:32.422Z,12.33
2023-01-07T06:06:36.206Z,12.27
2023-01-07T06:11:41.510Z,12.27
2023-01-07T06:16:45.179Z,12.27
2023-01-07T06:21:48.839Z,12.26
2023-01-07T06:26:54.109Z,12.32
2023-01-07T06:31:57.724Z,12.16
2023-01-07T06:37:01.553Z,12.23
2023-01-07T06:42:07.014Z,12.22
2023-01-07T06:47:10.638Z,12.21
2023-01-07T06:52:14.278Z,12.12
2023-01-07T06:57:19.631Z,12.11
2023-01-07T07:02:25.389Z,12.08
2023-01-07T07:07:29.076Z,12.08
2023-01-07T07:12:35.512Z,12.02
2023-01-07T07:17:39.152Z,11.99
2023-01-07T07:22:47.173Z,12.02
2023-01-07T07:27:52.443Z,11.96
2023-01-07T07:32:56.088Z,11.99
2023-01-07T07:37:59.698Z,12.00
2023-01-07T07:43:10.169Z,11.93
2023-01-07T07:48:17.176Z,11.93
2023-01-07T07:53:21.077Z,11.91
2023-01-07T07:58:26.363Z,11.92
2023-01-07T08:03:30.022Z,11.88
2023-01-07T08:08:33.963Z,11.80
2023-01-07T08:13:39.283Z,11.81
2023-01-07T08:18:43.637Z,11.73
2023-01-07T08:23:47.261Z,11.80
2023-01-07T08:28:52.708Z,11.89
2023-01-07T08:33:56.345Z,12.02
2023-01-07T08:38:59.988Z,12.05
2023-01-07T08:44:05.564Z,12.03
2023-01-07T08:49:10.029Z,11.90
2023-01-07T08:54:13.694Z,11.81
2023-01-07T08:59:19.048Z,11.81
2023-01-07T09:04:22.694Z,11.63
2023-01-07T09:09:26.348Z,11.77
2023-01-07T09:14:31.992Z,11.82
2023-01-07T09:19:35.668Z,11.97
2023-01-07T09:24:39.271Z,12.04
2023-01-07T09:29:44.558Z,11.84
2023-01-07T09:34:48.301Z,11.79
2023-01-07T09:39:51.932Z,11.75
2023-01-07T09:45:08.963Z,11.76
2023-01-07T09:50:23.247Z,11.74
2023-01-07T09:55:33.077Z,11.67
2023-01-07T10:00:43.427Z,11.64
2023-01-07T10:06:05.236Z,11.67
2023-01-07T10:11:22.033Z,11.74
2023-01-07T10:16:36.449Z,11.72
2023-01-07T10:21:43.891Z,11.71
2023-01-07T10:26:52.127Z,11.65
2023-01-07T10:31:59.274Z,11.64
2023-01-07T10:37:05.489Z,11.46
2023-01-07T10:42:12.491Z,11.59
2023-01-07T10:47:22.371Z,11.40
2023-01-07T10:52:38.585Z,11.30
2023-01-07T10:57:42.636Z,11.27
2023-01-07T11:02:51.660Z,11.39
2023-01-07T11:08:00.313Z,11.17
2023-01-07T11:13:07.854Z,11.32
2023-01-07T11:18:24.339Z,11.46
2023-01-07T11:23:37.892Z,11.13
2023-01-07T11:28:49.301Z,11.21
2023-01-07T11:34:03.816Z,11.33
2023-01-07T11:39:11.216Z,11.25
2023-01-07T11:44:17.027Z,11.36
2023-01-07T11:49:32.106Z,11.34
2023-01-07T11:54:35.747Z,11.32
2023-01-07T11:59:39.468Z,11.37
2023-01-07T12:04:44.783Z,11.44
2023-01-07T12:09:48.492Z,11.31
2023-01-07T12:14:52.197Z,11.24
2023-01-07T12:20:27.989Z,11.22
2023-01-07T12:25:40.902Z,11.22
2023-01-07T12:31:08.094Z,11.25
2023-01-07T12:36:20.960Z,11.34
2023-01-07T12:41:28.807Z,11.37
2023-01-07T12:46:39.653Z,11.23
2023-01-07T12:51:49.795Z,11.26
2023-01-07T12:56:59.004Z,11.09
2023-01-07T13:02:16.841Z,11.23
2023-01-07T13:07:29.474Z,11.08
2023-01-07T13:12:41.106Z,11.13
2023-01-07T13:17:46.307Z,11.01
2023-01-07T13:22:55.919Z,11.24
2023-01-07T13:28:28.078Z,11.10
2023-01-07T13:33:43.628Z,11.01
2023-01-07T13:39:13.814Z,10.86
2023-01-07T13:44:35.277Z,10.86
2023-01-07T13:49:39.281Z,10.76
2023-01-07T13:55:37.971Z,10.67
2023-01-07T14:00:58.437Z,10.54
2023-01-07T14:06:43.031Z,10.55
2023-01-07T14:12:08.883Z,10.39
2023-01-07T14:17:23.706Z,10.38
2023-01-07T14:22:40.794Z,10.34
2023-01-07T14:28:13.769Z,10.33
2023-01-07T14:33:21.970Z,10.35
2023-01-07T14:39:07.356Z,10.23
2023-01-07T14:44:30.786Z,10.26
2023-01-07T14:49:53.361Z,10.15
2023-01-07T14:55:29.279Z,10.11
2023-01-07T15:01:07.064Z,10.12
2023-01-07T15:06:22.501Z,10.30
2023-01-07T15:11:26.988Z,10.22
2023-01-07T15:16:36.310Z,10.26
2023-01-07T15:21:52.006Z,10.27
2023-01-07T15:27:02.901Z,10.44
2023-01-07T15:32:19.474Z,10.39
2023-01-07T15:37:23.232Z,10.34
2023-01-07T15:42:28.435Z,10.39
2023-01-07T15:47:38.877Z,10.41
2023-01-07T15:52:48.542Z,10.61
2023-01-07T15:57:57.456Z,10.77
2023-01-07T16:03:04.026Z,11.16
2023-01-07T16:08:16.047Z,11.48
2023-01-07T16:13:19.686Z,11.55
2023-01-07T16:18:25.219Z,11.55
2023-01-07T16:23:30.164Z,11.64
2023-01-07T16:28:38.906Z,11.72
2023-01-07T16:33:44.897Z,11.72
2023-01-07T16:38:52.404Z,11.89
2023-01-07T16:43:56.733Z,11.95
2023-01-07T16:49:29.937Z,12.03
2023-01-07T16:54:36.333Z,11.75
2023-01-07T16:59:43.696Z,11.66
2023-01-07T17:04:49.204Z,11.77
2023-01-07T17:09:54.553Z,11.95
2023-01-07T17:14:58.267Z,12.05
2023-01-07T17:20:15.829Z,12.28
2023-01-07T17:25:24.668Z,12.35
2023-01-07T17:30:32.810Z,12.43
2023-01-07T17:35:45.425Z,12.49
2023-01-07T17:40:49.473Z,12.61
2023-01-07T17:45:53.128Z,12.65
2023-01-07T17:50:59.103Z,12.72
2023-01-07T17:56:02.983Z,12.75
2023-01-07T18:01:08.964Z,12.56
2023-01-07T18:06:18.061Z,12.61
2023-01-07T18:11:22.919Z,12.69
2023-01-07T18:16:26.655Z,12.60
2023-01-07T18:21:34.506Z,12.53
2023-01-07T18:26:38.123Z,12.61
2023-01-07T18:31:43.417Z,12.56
2023-01-07T18:36:51.372Z,12.68
2023-01-07T18:41:55.210Z,12.75
2023-01-07T18:46:58.881Z,12.63
2023-01-07T18:52:04.176Z,12.48
2023-01-07T18:57:07.951Z,12.43
2023-01-07T19:02:16.541Z,12.34
2023-01-07T19:07:21.872Z,12.23
2023-01-07T19:12:25.478Z,12.21
2023-01-07T19:17:29.176Z,12.15
2023-01-07T19:22:34.486Z,12.13
2023-01-07T19:27:38.118Z,12.05
2023-01-07T19:32:41.787Z,12.04
2023-01-07T19:37:47.126Z,12.12
2023-01-07T19:42:50.800Z,12.20
2023-01-07T19:47:54.459Z,12.07
2023-01-07T19:53:00.149Z,12.07
2023-01-07T19:58:03.789Z,12.01
2023-01-07T20:03:07.490Z,11.96
2023-01-07T20:08:12.873Z,11.96
2023-01-07T20:13:16.525Z,11.83
2023-01-07T20:18:20.158Z,11.82
2023-01-07T20:23:26.730Z,11.76
2023-01-07T20:28:30.693Z,11.88
2023-01-07T20:33:35.087Z,11.92
2023-01-07T20:38:40.729Z,11.85
2023-01-07T20:43:44.941Z,11.83
2023-01-07T20:48:48.800Z,11.82
2023-01-07T20:53:54.332Z,11.76
2023-01-07T20:58:58.433Z,11.70
2023-01-07T21:04:02.070Z,11.70
2023-01-07T21:09:08.170Z,11.64
2023-01-07T21:14:11.774Z,11.58
2023-01-07T21:19:15.760Z,11.56
2023-01-07T21:24:21.134Z,11.45
2023-01-07T21:29:24.777Z,11.50
2023-01-07T21:34:28.426Z,11.57
2023-01-07T21:39:33.775Z,11.55
2023-01-07T21:44:38.157Z,11.62
2023-01-07T21:49:42.009Z,11.46
2023-01-07T21:54:48.031Z,11.60
2023-01-07T21:59:51.643Z,11.71
2023-01-07T22:04:55.255Z,11.81
2023-01-07T22:10:00.544Z,12.02
2023-01-07T22:15:04.312Z,11.93
2023-01-07T22:20:09.294Z,12.25
2023-01-07T22:25:14.589Z,12.40
2023-01-07T22:30:20.459Z,12.11
2023-01-07T22:35:24.611Z,12.28
2023-01-07T22:40:33.225Z,12.20
2023-01-07T22:45:43.135Z,12.10
2023-01-07T22:50:46.799Z,12.02
2023-01-07T22:55:52.210Z,12.05
2023-01-07T23:01:10.939Z,11.98
2023-01-07T23:06:15.960Z,12.15
2023-01-07T23:11:21.292Z,12.11
2023-01-07T23:16:24.963Z,12.04
2023-01-07T23:21:28.650Z,12.09
2023-01-07T23:26:34.916Z,12.06
2023-01-07T23:31:38.710Z,12.04
2023-01-07T23:36:42.403Z,12.05
2023-01-07T23:41:47.748Z,11.98
2023-01-07T23:46:51.770Z,11.94
2023-01-07T23:51:55.391Z,11.96
2023-01-07T23:57:00.722Z,12.01
